Time;durP1;ratioP1;P1;durP2;ratioP2;P2;SDS_P1;SDS_P2;PMS_P1;PMS_P2;Temp;Humidity;BMP_temperature;BMP_pressure;BME280_temperature;BME280_humidity;BME280_pressure;Samples;Min_cycle;Max_cycle;Signal;HPM_P1;HPM_P2
2024/01/30 00:04:21;;;;;;;27.67;10.50;;;;;;;;;;6088764;23;20222;-92
2024/01/30 00:07:29;;;;;;;25.50;10.47;;;;;;;;;;6105560;23;20284;-94
2024/01/30 00:13:50;;;;;;;26.23;11.20;;;;;;;;;;5130830;27;20526;-93
2024/01/30 00:16:57;;;;;;;26.30;10.90;;;;;;;;;;5118118;28;20185;-94
2024/01/30 00:20:05;;;;;;;26.07;10.77;;;;;;;;;;5117140;28;20185;-93
2024/01/30 00:23:11;;;;;;;27.53;10.40;;;;;;;;;;5118193;28;20227;-93
2024/01/30 00:26:17;;;;;;;27.83;11.07;;;;;;;;;;5118426;28;20216;-95
2024/01/30 00:29:33;;;;;;;25.97;10.20;;;;;;;;;;5117926;28;20189;-93
2024/01/30 00:32:39;;;;;;;24.93;10.93;;;;;;;;;;5118405;28;20288;-92
2024/01/30 00:35:45;;;;;;;23.23;9.83;;;;;;;;;;5118526;28;20181;-92
2024/01/30 00:38:50;;;;;;;31.20;10.67;;;;;;;;;;5118397;28;20255;-93
2024/01/30 00:41:59;;;;;;;29.07;11.23;;;;;;;;;;5118250;28;20300;-93
2024/01/30 00:45:08;;;;;;;26.03;10.93;;;;;;;;;;5117657;28;20189;-94
2024/01/30 00:48:16;;;;;;;24.43;10.23;;;;;;;;;;5118187;28;20197;-94
2024/01/30 00:51:23;;;;;;;21.90;10.00;;;;;;;;;;5115096;28;20193;-94
2024/01/30 00:54:29;;;;;;;23.13;9.27;;;;;;;;;;5116007;28;20261;-92
2024/01/30 00:57:35;;;;;;;29.87;9.80;;;;;;;;;;5115999;28;20646;-91
2024/01/30 01:00:42;;;;;;;28.57;10.40;;;;;;;;;;5115127;28;20180;-93
2024/01/30 01:03:49;;;;;;;26.67;10.13;;;;;;;;;;5116873;28;20178;-94
2024/01/30 01:06:55;;;;;;;25.93;10.63;;;;;;;;;;5115936;28;20236;-93
2024/01/30 01:10:03;;;;;;;19.47;9.50;;;;;;;;;;5115445;28;20185;-93
2024/01/30 01:13:10;;;;;;;24.23;10.73;;;;;;;;;;5126477;28;20237;-95
2024/01/30 01:16:18;;;;;;;29.93;11.47;;;;;;;;;;5115501;28;20208;-92
2024/01/30 01:19:23;;;;;;;25.50;11.67;;;;;;;;;;5116630;28;20192;-93
2024/01/30 01:22:29;;;;;;;30.77;12.20;;;;;;;;;;5115355;28;20323;-93
2024/01/30 01:25:34;;;;;;;27.90;12.17;;;;;;;;;;5103880;28;20186;-93
2024/01/30 01:28:41;;;;;;;30.23;11.80;;;;;;;;;;5102181;28;20647;-94
2024/01/30 01:31:49;;;;;;;26.17;11.17;;;;;;;;;;5101760;28;20202;-94
2024/01/30 01:34:58;;;;;;;27.23;11.20;;;;;;;;;;5101152;28;20228;-93
2024/01/30 01:38:07;;;;;;;27.17;11.10;;;;;;;;;;5101468;28;20181;-93
2024/01/30 01:41:13;;;;;;;30.13;11.77;;;;;;;;;;5102211;28;20193;-94
2024/01/30 01:44:19;;;;;;;28.13;12.20;;;;;;;;;;5102301;28;20311;-94
2024/01/30 01:47:27;;;;;;;26.80;11.37;;;;;;;;;;5102114;28;20224;-94
2024/01/30 01:50:33;;;;;;;28.83;11.23;;;;;;;;;;5101814;28;20247;-93
2024/01/30 01:53:39;;;;;;;33.00;12.63;;;;;;;;;;5102475;28;20317;-94
2024/01/30 01:56:46;;;;;;;31.33;11.60;;;;;;;;;;5103251;28;20170;-94
2024/01/30 01:59:53;;;;;;;30.17;11.50;;;;;;;;;;5102781;28;20186;-92
2024/01/30 02:03:01;;;;;;;33.83;11.70;;;;;;;;;;5103858;28;20309;-95
2024/01/30 02:06:13;;;;;;;31.50;12.50;;;;;;;;;;5103564;28;20178;-94
2024/01/30 02:09:19;;;;;;;30.23;11.27;;;;;;;;;;5102185;28;20261;-93
2024/01/30 02:12:24;;;;;;;25.17;9.97;;;;;;;;;;5102084;28;20355;-91
2024/01/30 02:15:30;;;;;;;29.93;11.23;;;;;;;;;;5102117;28;20189;-93
2024/01/30 02:18:43;;;;;;;27.93;11.80;;;;;;;;;;5101426;28;20186;-92
2024/01/30 02:21:52;;;;;;;30.57;11.13;;;;;;;;;;5205172;22;20230;-93
2024/01/30 02:25:00;;;;;;;32.93;10.27;;;;;;;;;;5082191;28;20174;-92
2024/01/30 02:28:07;;;;;;;26.77;11.30;;;;;;;;;;5071072;28;20187;-93
2024/01/30 02:31:13;;;;;;;27.47;10.60;;;;;;;;;;5081438;28;20187;-92
2024/01/30 02:34:21;;;;;;;22.53;10.40;;;;;;;;;;5080151;28;20187;-91
2024/01/30 02:37:29;;;;;;;24.80;10.00;;;;;;;;;;5080291;28;20224;-93
2024/01/30 02:40:35;;;;;;;27.30;10.13;;;;;;;;;;5081003;28;20175;-93
2024/01/30 02:43:42;;;;;;;27.77;10.50;;;;;;;;;;5081765;28;20186;-92
2024/01/30 02:46:48;;;;;;;27.80;12.93;;;;;;;;;;5081048;28;20167;-92
2024/01/30 02:49:54;;;;;;;30.87;12.60;;;;;;;;;;5080223;28;20178;-93
2024/01/30 02:53:04;;;;;;;30.93;12.10;;;;;;;;;;5081204;28;20555;-93
2024/01/30 02:56:13;;;;;;;26.10;11.70;;;;;;;;;;5080432;28;20186;-94
2024/01/30 02:59:20;;;;;;;33.33;11.77;;;;;;;;;;5081857;28;20190;-93
2024/01/30 03:02:30;;;;;;;29.87;11.63;;;;;;;;;;5082277;28;20194;-93
2024/01/30 03:05:36;;;;;;;33.87;11.73;;;;;;;;;;5081740;28;20194;-92
2024/01/30 03:08:43;;;;;;;28.37;11.67;;;;;;;;;;5081314;28;20254;-93
2024/01/30 03:11:49;;;;;;;23.77;11.03;;;;;;;;;;5081421;28;20170;-94
2024/01/30 03:14:55;;;;;;;30.87;12.10;;;;;;;;;;5080765;28;20181;-93
2024/01/30 03:18:01;;;;;;;25.47;11.63;;;;;;;;;;5081755;28;20182;-93
2024/01/30 03:21:08;;;;;;;26.03;11.70;;;;;;;;;;5080054;28;20202;-93
2024/01/30 03:24:18;;;;;;;22.30;9.33;;;;;;;;;;5080571;28;20225;-93
2024/01/30 03:27:25;;;;;;;27.27;10.60;;;;;;;;;;5081492;28;20191;-94
2024/01/30 03:30:32;;;;;;;30.20;9.60;;;;;;;;;;5080808;28;20190;-94
2024/01/30 03:33:39;;;;;;;20.07;9.50;;;;;;;;;;5081318;28;20222;-94
2024/01/30 03:36:45;;;;;;;25.27;9.63;;;;;;;;;;5080903;28;20209;-93
2024/01/30 03:39:52;;;;;;;29.30;10.13;;;;;;;;;;5081102;28;20175;-92
2024/01/30 03:42:58;;;;;;;29.97;10.97;;;;;;;;;;5080604;28;20179;-92
2024/01/30 03:46:06;;;;;;;33.13;11.33;;;;;;;;;;5094135;28;20247;-94
2024/01/30 03:49:12;;;;;;;24.13;9.93;;;;;;;;;;5080746;28;20185;-93
2024/01/30 03:52:22;;;;;;;23.57;9.73;;;;;;;;;;5080587;28;20187;-91
2024/01/30 03:55:32;;;;;;;22.93;9.67;;;;;;;;;;5080587;28;20175;-94
2024/01/30 03:58:39;;;;;;;30.13;10.87;;;;;;;;;;5081094;28;20186;-93
2024/01/30 04:01:49;;;;;;;28.30;10.83;;;;;;;;;;5080949;28;20175;-93
2024/01/30 04:04:54;;;;;;;29.53;12.33;;;;;;;;;;5081065;28;20183;-92
2024/01/30 04:08:01;;;;;;;25.53;10.60;;;;;;;;;;5080147;28;20254;-93
2024/01/30 04:11:09;;;;;;;31.17;11.47;;;;;;;;;;5081007;28;20194;-92
2024/01/30 04:14:18;;;;;;;30.77;11.13;;;;;;;;;;5092743;28;20230;-93
2024/01/30 04:17:24;;;;;;;32.30;11.07;;;;;;;;;;5081119;28;20197;-93
2024/01/30 04:20:31;;;;;;;33.77;10.47;;;;;;;;;;5081339;28;20194;-94
2024/01/30 04:23:43;;;;;;;25.87;10.57;;;;;;;;;;5081110;28;20230;-91
2024/01/30 04:26:54;;;;;;;25.07;10.60;;;;;;;;;;5081802;28;20250;-94
2024/01/30 04:30:01;;;;;;;30.40;13.07;;;;;;;;;;5080718;28;20170;-94
2024/01/30 04:33:08;;;;;;;30.53;12.03;;;;;;;;;;5080786;28;20225;-93
2024/01/30 04:36:14;;;;;;;30.33;11.50;;;;;;;;;;5080189;28;20194;-95
2024/01/30 04:39:20;;;;;;;29.97;11.90;;;;;;;;;;5069294;28;20182;-94
2024/01/30 04:42:29;;;;;;;39.10;13.93;;;;;;;;;;5080083;28;20259;-93
2024/01/30 04:45:38;;;;;;;37.03;12.87;;;;;;;;;;5080509;28;20175;-93
2024/01/30 04:48:45;;;;;;;31.70;13.80;;;;;;;;;;5080722;28;20186;-94
2024/01/30 04:51:52;;;;;;;31.00;11.40;;;;;;;;;;5093253;28;20198;-93
2024/01/30 04:54:58;;;;;;;33.00;12.50;;;;;;;;;;5081203;28;20197;-93
2024/01/30 04:58:06;;;;;;;30.03;12.27;;;;;;;;;;5080937;28;20190;-93
2024/01/30 05:04:43;;;;;;;30.23;11.50;;;;;;;;;;5095996;28;20225;-93
2024/01/30 05:07:49;;;;;;;32.20;11.27;;;;;;;;;;5083315;28;20195;-93
2024/01/30 05:10:56;;;;;;;23.33;11.30;;;;;;;;;;5083934;28;20233;-93
2024/01/30 05:17:25;;;;;;;25.67;11.23;;;;;;;;;;5084355;28;20243;-93
2024/01/30 05:20:30;;;;;;;34.70;11.93;;;;;;;;;;5083469;28;20189;-91
2024/01/30 05:23:37;;;;;;;31.43;12.63;;;;;;;;;;5082743;28;20213;-92
2024/01/30 05:26:43;;;;;;;25.73;11.47;;;;;;;;;;5083538;28;20253;-93
2024/01/30 05:29:55;;;;;;;28.83;10.83;;;;;;;;;;5084462;28;20261;-94
2024/01/30 05:33:01;;;;;;;26.37;10.93;;;;;;;;;;5083272;28;20257;-93
2024/01/30 10:38:38;;;;;;;38.07;16.03;;;;;;;;;;5059631;23;20228;-93
2024/01/30 10:41:46;;;;;;;31.20;14.90;;;;;;;;;;5030044;28;20228;-93
2024/01/30 10:44:59;;;;;;;37.43;16.47;;;;;;;;;;5029905;28;20530;-94
2024/01/30 10:48:06;;;;;;;42.33;18.40;;;;;;;;;;5032084;28;20185;-93
2024/01/30 10:51:13;;;;;;;43.77;18.10;;;;;;;;;;5031327;28;20177;-94
2024/01/30 10:57:43;;;;;;;34.23;16.57;;;;;;;;;;5031011;28;20252;-93
2024/01/30 11:00:49;;;;;;;42.87;19.23;;;;;;;;;;5030162;28;20192;-93
2024/01/30 11:03:56;;;;;;;36.90;16.60;;;;;;;;;;5031245;28;20193;-92
2024/01/30 11:07:04;;;;;;;44.73;17.60;;;;;;;;;;5029052;28;20180;-93
2024/01/30 11:10:13;;;;;;;36.67;16.63;;;;;;;;;;5030332;28;20180;-92
2024/01/30 11:13:21;;;;;;;36.07;16.13;;;;;;;;;;5028276;28;20221;-93
2024/01/30 11:16:33;;;;;;;33.20;16.27;;;;;;;;;;5030237;28;20192;-93
2024/01/30 11:19:39;;;;;;;34.13;17.00;;;;;;;;;;5027677;28;20192;-94
2024/01/30 11:22:46;;;;;;;38.53;18.17;;;;;;;;;;5028808;28;20193;-93
2024/01/30 11:25:57;;;;;;;35.87;16.10;;;;;;;;;;5029426;28;20247;-91
2024/01/30 11:29:05;;;;;;;37.43;16.90;;;;;;;;;;5030745;28;20200;-92
2024/01/30 11:32:12;;;;;;;40.30;16.70;;;;;;;;;;5030892;28;20196;-92
2024/01/30 11:35:18;;;;;;;41.87;16.93;;;;;;;;;;5032052;28;20231;-93
2024/01/30 11:38:24;;;;;;;35.90;17.00;;;;;;;;;;5030103;28;20211;-93
2024/01/30 11:41:35;;;;;;;37.20;16.53;;;;;;;;;;5029595;28;20192;-94
2024/01/30 11:44:40;;;;;;;37.60;17.43;;;;;;;;;;5030155;28;20240;-93
2024/01/30 11:47:46;;;;;;;37.30;16.07;;;;;;;;;;5030983;28;20393;-93
2024/01/30 11:50:53;;;;;;;34.47;16.87;;;;;;;;;;5030436;28;20216;-93
2024/01/30 11:54:00;;;;;;;35.23;15.67;;;;;;;;;;5030111;28;20230;-94
2024/01/30 11:57:11;;;;;;;35.77;16.57;;;;;;;;;;5031004;28;20172;-94
2024/01/30 12:00:18;;;;;;;38.13;16.87;;;;;;;;;;5032647;28;20208;-93
2024/01/30 12:06:46;;;;;;;37.27;16.83;;;;;;;;;;5032088;28;20204;-94
2024/01/30 12:13:23;;;;;;;34.97;16.60;;;;;;;;;;5032274;28;20185;-93
2024/01/30 12:16:32;;;;;;;32.67;16.27;;;;;;;;;;5032505;28;20189;-93
2024/01/30 21:59:57;;;;;;;65.00;25.73;;;;;;;;;;4956194;28;20235;-93
2024/01/30 23:05:35;;;;;;;70.77;25.23;;;;;;;;;;753153;23;20661;-92
2024/01/30 23:08:40;;;;;;;67.30;25.63;;;;;;;;;;4977641;28;20237;-92
2024/01/30 23:11:45;;;;;;;64.20;23.90;;;;;;;;;;5000866;28;20218;-90
2024/01/30 23:14:52;;;;;;;74.47;26.73;;;;;;;;;;4990909;28;20193;-91
2024/01/30 23:17:59;;;;;;;65.00;25.33;;;;;;;;;;4991246;28;20185;-91
2024/01/30 23:21:07;;;;;;;61.50;24.83;;;;;;;;;;5001848;28;20185;-92
2024/01/30 23:24:13;;;;;;;65.60;24.87;;;;;;;;;;5002722;28;20198;-92
2024/01/30 23:27:19;;;;;;;64.97;24.40;;;;;;;;;;5002201;28;20273;-92
2024/01/30 23:30:25;;;;;;;70.37;25.30;;;;;;;;;;5000403;28;20228;-94
2024/01/30 23:33:34;;;;;;;65.93;23.23;;;;;;;;;;4999083;28;20184;-93
2024/01/30 23:36:45;;;;;;;65.20;25.23;;;;;;;;;;5000291;28;20178;-92
2024/01/30 23:39:50;;;;;;;65.83;25.37;;;;;;;;;;5000329;28;20198;-93
2024/01/30 23:42:56;;;;;;;64.77;24.23;;;;;;;;;;4999813;28;20278;-92
2024/01/30 23:46:01;;;;;;;63.13;24.37;;;;;;;;;;4988699;28;20201;-94
2024/01/30 23:49:07;;;;;;;66.57;25.60;;;;;;;;;;4998973;28;20253;-94
2024/01/30 23:52:14;;;;;;;64.13;23.93;;;;;;;;;;5001040;28;20191;-93
2024/01/30 23:55:19;;;;;;;56.70;23.13;;;;;;;;;;5001963;28;20221;-94
2024/01/30 23:58:25;;;;;;;60.70;23.43;;;;;;;;;;4990802;28;20190;-93
